createdAt,value
2023-01-11T00:01:10.818Z,97.10
2023-01-11T00:03:38.881Z,96.80
2023-01-11T00:06:08.661Z,96.90
2023-01-11T00:08:37.343Z,97.00
2023-01-11T00:11:05.655Z,97.20
2023-01-11T00:13:34.364Z,96.90
2023-01-11T00:16:07.672Z,96.80
2023-01-11T00:18:37.185Z,96.80
2023-01-11T00:21:09.003Z,96.90
2023-01-11T00:23:38.188Z,96.90
2023-01-11T00:26:12.330Z,96.70
2023-01-11T00:28:41.014Z,96.60
2023-01-11T00:31:09.399Z,96.60
2023-01-11T00:33:37.339Z,96.50
2023-01-11T00:36:05.330Z,95.70
2023-01-11T00:38:52.003Z,95.10
2023-01-11T00:41:39.769Z,94.80
2023-01-11T00:44:28.386Z,94.40
2023-01-11T00:47:15.569Z,94.70
2023-01-11T00:49:44.629Z,94.70
2023-01-11T00:52:12.308Z,95.30
2023-01-11T00:54:41.450Z,95.80
2023-01-11T00:57:09.486Z,96.10
2023-01-11T00:59:41.347Z,96.00
2023-01-11T01:02:11.340Z,96.40
2023-01-11T01:04:40.427Z,96.40
2023-01-11T01:07:08.628Z,96.60
2023-01-11T01:09:36.706Z,96.60
2023-01-11T01:12:05.080Z,96.60
2023-01-11T01:14:34.108Z,96.40
2023-01-11T01:17:08.220Z,96.20
2023-01-11T01:19:38.267Z,96.10
2023-01-11T01:22:06.676Z,96.20
2023-01-11T01:24:34.670Z,96.70
2023-01-11T01:27:03.311Z,97.10
2023-01-11T01:29:31.145Z,97.30
2023-01-11T01:31:59.565Z,97.40
2023-01-11T01:34:27.816Z,97.30
2023-01-11T01:36:56.250Z,97.20
2023-01-11T01:39:24.871Z,97.50
2023-01-11T01:41:53.066Z,97.70
2023-01-11T01:44:48.716Z,97.60
2023-01-11T01:47:18.423Z,97.70
2023-01-11T01:49:46.750Z,97.70
2023-01-11T01:52:14.633Z,97.70
2023-01-11T01:54:48.530Z,97.60
2023-01-11T01:57:22.776Z,97.60
2023-01-11T01:59:52.856Z,97.50
2023-01-11T02:02:24.837Z,97.40
2023-01-11T02:04:57.201Z,97.40
2023-01-11T02:07:32.236Z,97.40
2023-01-11T02:10:05.322Z,97.40
2023-01-11T02:12:41.125Z,97.30
2023-01-11T02:15:12.325Z,97.40
2023-01-11T02:17:41.449Z,97.60
2023-01-11T02:20:15.549Z,97.80
2023-01-11T02:23:04.965Z,97.70
2023-01-11T02:26:26.909Z,97.70
2023-01-11T02:29:00.919Z,97.60
2023-01-11T02:31:38.122Z,97.70
2023-01-11T02:34:33.380Z,98.00
2023-01-11T02:37:21.673Z,98.10
2023-01-11T02:40:07.664Z,98.10
2023-01-11T02:42:58.592Z,98.30
2023-01-11T02:45:30.296Z,98.50
2023-01-11T02:48:13.052Z,98.90
2023-01-11T02:51:09.018Z,98.90
2023-01-11T02:53:50.891Z,98.90
2023-01-11T02:56:25.952Z,99.10
2023-01-11T02:58:56.454Z,99.20
2023-01-11T03:01:26.095Z,99.30
2023-01-11T03:03:55.237Z,99.50
2023-01-11T03:06:41.299Z,99.70
2023-01-11T03:09:44.942Z,99.70
2023-01-11T03:12:57.598Z,99.90
2023-01-11T03:16:08.764Z,99.90
2023-01-11T03:18:41.121Z,99.90
2023-01-11T03:21:49.379Z,99.90
2023-01-11T03:24:29.930Z,99.90
2023-01-11T03:27:37.911Z,99.90
2023-01-11T03:30:20.286Z,99.90
2023-01-11T03:32:51.005Z,99.90
2023-01-11T03:35:43.730Z,99.90
2023-01-11T03:38:27.889Z,99.90
2023-01-11T03:41:10.500Z,99.90
2023-01-11T03:43:41.032Z,99.90
2023-01-11T03:46:16.080Z,99.90
2023-01-11T03:48:52.290Z,99.90
2023-01-11T03:51:27.836Z,99.90
2023-01-11T03:54:02.549Z,99.90
2023-01-11T03:57:01.618Z,99.90
2023-01-11T03:59:29.790Z,99.90
2023-01-11T04:01:57.780Z,99.90
2023-01-11T04:04:26.380Z,99.90
2023-01-11T04:06:54.296Z,99.90
2023-01-11T04:09:23.420Z,99.90
2023-01-11T04:11:51.531Z,99.70
2023-01-11T04:14:20.658Z,99.50
2023-01-11T04:16:48.472Z,99.40
2023-01-11T04:19:16.946Z,99.40
2023-01-11T04:21:45.004Z,99.40
2023-01-11T04:24:14.247Z,99.60
2023-01-11T04:26:42.614Z,99.40
2023-01-11T04:29:10.517Z,99.20
2023-01-11T04:31:38.406Z,99.10
2023-01-11T04:34:06.799Z,99.20
2023-01-11T04:36:35.086Z,99.20
2023-01-11T04:39:03.639Z,99.30
2023-01-11T04:41:49.888Z,99.30
2023-01-11T04:44:18.242Z,99.40
2023-01-11T04:46:46.031Z,99.50
2023-01-11T04:49:15.378Z,99.60
2023-01-11T04:51:43.938Z,99.70
2023-01-11T04:54:12.531Z,99.90
2023-01-11T04:56:40.845Z,99.90
2023-01-11T04:59:09.138Z,99.90
2023-01-11T05:01:37.401Z,99.90
2023-01-11T05:04:05.943Z,99.90
2023-01-11T05:06:34.433Z,99.90
2023-01-11T05:09:02.504Z,99.90
2023-01-11T05:11:30.455Z,99.90
2023-01-11T05:14:00.492Z,99.90
2023-01-11T05:16:28.890Z,99.90
2023-01-11T05:18:59.426Z,99.90
2023-01-11T05:21:33.937Z,99.90
2023-01-11T05:24:05.086Z,99.90
2023-01-11T05:26:37.035Z,99.90
2023-01-11T05:29:08.636Z,99.90
2023-01-11T05:31:38.982Z,99.90
2023-01-11T05:34:08.539Z,99.90
2023-01-11T05:36:36.958Z,99.90
2023-01-11T05:39:06.147Z,99.90
2023-01-11T05:41:34.624Z,99.90
2023-01-11T05:44:20.975Z,99.90
2023-01-11T05:46:49.519Z,99.90
2023-01-11T05:49:17.345Z,99.60
2023-01-11T05:51:45.521Z,99.50
2023-01-11T05:54:15.460Z,99.30
2023-01-11T05:56:43.679Z,99.30
2023-01-11T05:59:12.391Z,99.20
2023-01-11T06:01:40.867Z,99.20
2023-01-11T06:04:09.013Z,99.10
2023-01-11T06:06:37.111Z,99.20
2023-01-11T06:09:05.092Z,99.20
2023-01-11T06:11:33.631Z,99.10
2023-01-11T06:14:01.481Z,99.20
2023-01-11T06:16:29.821Z,99.50
2023-01-11T06:18:58.843Z,99.40
2023-01-11T06:21:27.164Z,99.40
2023-01-11T06:23:56.014Z,99.70
2023-01-11T06:26:24.717Z,99.60
2023-01-11T06:28:52.758Z,99.60
2023-01-11T06:31:21.064Z,99.50
2023-01-11T06:33:49.067Z,99.30
2023-01-11T06:36:17.832Z,99.00
2023-01-11T06:38:46.027Z,99.00
2023-01-11T06:41:14.533Z,99.00
2023-01-11T06:43:42.973Z,98.80
2023-01-11T06:46:13.512Z,98.50
2023-01-11T06:48:42.137Z,98.40
2023-01-11T06:51:12.326Z,98.20
2023-01-11T06:53:42.676Z,97.80
2023-01-11T06:56:15.518Z,97.60
2023-01-11T06:58:46.747Z,97.20
2023-01-11T07:01:16.684Z,97.00
2023-01-11T07:03:45.974Z,96.70
2023-01-11T07:06:14.733Z,96.60
2023-01-11T07:08:43.036Z,96.20
2023-01-11T07:11:11.424Z,95.50
2023-01-11T07:13:39.279Z,94.80
2023-01-11T07:16:07.484Z,94.70
2023-01-11T07:18:37.821Z,94.40
2023-01-11T07:21:06.186Z,93.60
2023-01-11T07:23:34.189Z,93.40
2023-01-11T07:26:02.306Z,93.20
2023-01-11T07:28:31.151Z,93.00
2023-01-11T07:30:59.917Z,92.90
2023-01-11T07:33:28.394Z,92.60
2023-01-11T07:35:58.476Z,90.30
2023-01-11T07:38:26.876Z,90.50
2023-01-11T07:40:54.794Z,90.40
2023-01-11T07:43:24.124Z,90.30
2023-01-11T07:45:53.657Z,90.10
2023-01-11T07:48:28.336Z,89.50
2023-01-11T07:50:56.243Z,89.10
2023-01-11T07:53:26.604Z,88.20
2023-01-11T07:55:58.029Z,87.20
2023-01-11T07:58:26.043Z,85.90
2023-01-11T08:00:53.954Z,85.30
2023-01-11T08:03:22.316Z,83.60
2023-01-11T08:05:51.868Z,82.10
2023-01-11T08:08:19.961Z,80.00
2023-01-11T08:10:47.765Z,78.50
2023-01-11T08:13:37.702Z,77.80
2023-01-11T08:16:06.030Z,76.60
2023-01-11T08:18:35.288Z,73.60
2023-01-11T08:21:03.380Z,72.60
2023-01-11T08:23:31.896Z,69.40
2023-01-11T08:25:59.859Z,68.90
2023-01-11T08:28:27.927Z,68.60
2023-01-11T08:30:56.136Z,64.90
2023-01-11T08:33:24.047Z,63.60
2023-01-11T08:35:52.039Z,59.50
2023-01-11T08:38:20.090Z,60.90
2023-01-11T08:40:48.068Z,59.00
2023-01-11T08:43:16.106Z,59.40
2023-01-11T08:45:44.200Z,57.80
2023-01-11T08:48:12.724Z,59.70
2023-01-11T08:50:40.777Z,59.30
2023-01-11T08:53:08.931Z,56.70
2023-01-11T08:55:37.762Z,56.80
2023-01-11T08:58:05.688Z,58.20
2023-01-11T09:00:33.735Z,57.80
2023-01-11T09:03:02.155Z,58.50
2023-01-11T09:05:30.494Z,56.50
2023-01-11T09:07:58.634Z,55.30
2023-01-11T09:10:27.629Z,56.60
2023-01-11T09:12:55.571Z,56.80
2023-01-11T09:15:24.969Z,56.60
2023-01-11T09:17:53.983Z,52.40
2023-01-11T09:20:22.800Z,52.10
2023-01-11T09:22:53.844Z,50.60
2023-01-11T09:25:22.275Z,51.90
2023-01-11T09:27:51.700Z,50.90
2023-01-11T09:30:22.468Z,52.20
2023-01-11T09:32:51.662Z,51.70
2023-01-11T09:35:20.336Z,48.20
2023-01-11T09:37:54.416Z,50.00
2023-01-11T09:40:31.378Z,49.20
2023-01-11T09:43:04.501Z,46.60
2023-01-11T09:45:33.525Z,47.30
2023-01-11T09:48:12.305Z,47.50
2023-01-11T09:50:46.301Z,48.20
2023-01-11T09:53:35.428Z,48.60
2023-01-11T09:56:12.539Z,48.50
2023-01-11T09:58:55.564Z,46.90
2023-01-11T10:01:39.055Z,46.60
2023-01-11T10:04:42.240Z,46.20
2023-01-11T10:18:27.592Z,44.60
2023-01-11T10:18:37.390Z,44.20
2023-01-11T10:20:35.894Z,43.50
2023-01-11T10:23:11.002Z,43.90
2023-01-11T10:25:49.333Z,43.50
2023-01-11T10:28:31.886Z,43.50
2023-01-11T10:31:00.088Z,42.70
2023-01-11T10:33:30.760Z,42.50
2023-01-11T10:36:30.460Z,40.30
2023-01-11T10:39:33.388Z,40.30
2023-01-11T10:42:28.617Z,39.40
2023-01-11T10:45:18.637Z,38.90
2023-01-11T10:47:57.084Z,39.40
2023-01-11T10:50:36.876Z,38.70
2023-01-11T10:53:19.873Z,39.50
2023-01-11T10:56:06.027Z,38.60
2023-01-11T10:58:46.684Z,36.90
2023-01-11T11:01:29.156Z,38.10
2023-01-11T11:04:12.246Z,36.50
2023-01-11T11:07:00.181Z,37.70
2023-01-11T11:09:41.123Z,37.10
2023-01-11T11:12:14.956Z,35.80
2023-01-11T11:15:01.570Z,36.00
2023-01-11T11:17:38.695Z,35.00
2023-01-11T11:20:24.857Z,35.10
2023-01-11T11:22:55.245Z,35.10
2023-01-11T11:25:34.091Z,34.00
2023-01-11T11:28:06.619Z,33.80
2023-01-11T11:30:44.693Z,33.10
2023-01-11T11:33:30.713Z,33.70
2023-01-11T11:36:10.657Z,33.00
2023-01-11T11:39:02.314Z,32.80
2023-01-11T11:41:30.672Z,32.60
2023-01-11T11:44:16.799Z,32.50
2023-01-11T11:46:58.023Z,32.00
2023-01-11T11:49:26.531Z,31.70
2023-01-11T11:51:55.455Z,31.20
2023-01-11T11:54:32.738Z,31.60
2023-01-11T11:57:23.891Z,31.30
2023-01-11T12:00:09.678Z,31.30
2023-01-11T12:02:46.007Z,31.10
2023-01-11T12:05:14.595Z,31.30
2023-01-11T12:07:54.898Z,30.90
2023-01-11T12:10:29.299Z,31.10
2023-01-11T12:13:00.262Z,32.40
2023-01-11T12:15:30.621Z,31.90
2023-01-11T12:18:37.563Z,31.60
2023-01-11T12:21:20.213Z,30.70
2023-01-11T12:23:49.320Z,31.00
2023-01-11T12:26:28.915Z,31.30
2023-01-11T12:29:15.033Z,30.50
2023-01-11T12:32:02.452Z,30.80
2023-01-11T12:34:42.633Z,30.60
2023-01-11T12:37:35.044Z,30.60
2023-01-11T12:40:15.297Z,31.00
2023-01-11T12:42:56.112Z,30.90
2023-01-11T12:45:36.514Z,30.20
2023-01-11T12:48:25.033Z,30.20
2023-01-11T12:51:23.911Z,30.00
2023-01-11T12:54:16.005Z,30.30
2023-01-11T12:56:58.694Z,30.20
2023-01-11T12:59:42.375Z,29.70
2023-01-11T13:02:28.446Z,30.70
2023-01-11T13:05:33.244Z,30.60
2023-01-11T13:08:22.696Z,30.30
2023-01-11T13:11:36.178Z,31.10
2023-01-11T13:14:22.727Z,30.50
2023-01-11T13:17:22.896Z,30.30
2023-01-11T13:20:15.180Z,31.50
2023-01-11T13:23:06.643Z,31.90
2023-01-11T13:25:39.453Z,32.30
2023-01-11T13:28:23.976Z,32.10
2023-01-11T13:30:52.870Z,31.90
2023-01-11T13:33:26.914Z,31.70
2023-01-11T13:36:15.095Z,31.90
2023-01-11T13:39:06.307Z,31.90
2023-01-11T13:41:42.040Z,31.90
2023-01-11T13:44:37.126Z,31.40
2023-01-11T13:47:20.564Z,31.60
2023-01-11T13:49:59.011Z,31.60
2023-01-11T13:53:03.523Z,31.40
2023-01-11T13:55:40.894Z,31.80
2023-01-11T13:58:18.906Z,31.90
2023-01-11T14:01:13.186Z,30.90
2023-01-11T14:03:56.288Z,30.60
2023-01-11T14:06:45.295Z,30.80
2023-01-11T14:09:37.341Z,31.60
2023-01-11T14:12:16.674Z,30.80
2023-01-11T14:14:53.844Z,31.00
2023-01-11T14:17:24.731Z,31.40
2023-01-11T14:20:12.344Z,31.50
2023-01-11T14:23:22.869Z,32.00
2023-01-11T14:26:11.889Z,32.10
2023-01-11T14:29:01.111Z,33.40
2023-01-11T14:31:58.743Z,35.30
2023-01-11T14:34:36.156Z,36.30
2023-01-11T14:37:18.117Z,38.00
2023-01-11T14:40:01.635Z,38.90
2023-01-11T14:42:53.252Z,40.20
2023-01-11T14:45:28.817Z,41.30
2023-01-11T14:48:26.631Z,41.30
2023-01-11T14:51:23.948Z,41.00
2023-01-11T14:54:12.071Z,42.10
2023-01-11T14:56:43.420Z,43.50
2023-01-11T14:59:37.894Z,43.60
2023-01-11T15:02:06.154Z,44.20
2023-01-11T15:04:49.836Z,45.50
2023-01-11T15:07:30.066Z,45.40
2023-01-11T15:10:04.873Z,44.70
2023-01-11T15:12:40.456Z,45.00
2023-01-11T15:15:15.440Z,44.90
2023-01-11T15:18:02.978Z,44.80
2023-01-11T15:20:31.637Z,44.50
2023-01-11T15:23:03.226Z,44.00
2023-01-11T15:25:34.131Z,43.50
2023-01-11T15:28:24.733Z,43.40
2023-01-11T15:30:53.302Z,44.30
2023-01-11T15:33:21.189Z,45.10
2023-01-11T15:35:58.291Z,45.30
2023-01-11T15:38:33.517Z,46.10
2023-01-11T15:41:23.841Z,46.80
2023-01-11T15:44:18.274Z,47.80
2023-01-11T15:47:07.455Z,48.60
2023-01-11T15:50:03.636Z,49.40
2023-01-11T15:53:04.678Z,49.90
2023-01-11T15:56:06.415Z,50.20
2023-01-11T15:59:01.668Z,50.20
2023-01-11T16:01:30.752Z,50.50
2023-01-11T16:04:16.884Z,50.90
2023-01-11T16:06:54.561Z,51.50
2023-01-11T16:09:51.704Z,52.00
2023-01-11T16:12:19.633Z,52.40
2023-01-11T16:15:09.616Z,52.70
2023-01-11T16:17:42.479Z,53.30
2023-01-11T16:20:29.397Z,53.80
2023-01-11T16:22:58.971Z,54.00
2023-01-11T16:25:31.121Z,52.40
2023-01-11T16:28:01.223Z,50.30
2023-01-11T16:30:30.237Z,48.60
2023-01-11T16:33:22.285Z,49.20
2023-01-11T16:35:50.404Z,50.70
2023-01-11T16:38:23.005Z,51.40
2023-01-11T16:40:54.881Z,52.90
2023-01-11T16:43:33.915Z,53.80
2023-01-11T16:46:02.121Z,55.00
2023-01-11T16:48:30.669Z,55.30
2023-01-11T16:51:09.370Z,55.90
2023-01-11T16:53:42.445Z,57.00
2023-01-11T16:56:18.816Z,56.70
2023-01-11T16:59:06.101Z,56.70
2023-01-11T17:01:54.544Z,56.50
2023-01-11T17:04:49.635Z,55.60
2023-01-11T17:07:29.603Z,53.70
2023-01-11T17:10:30.456Z,52.60
2023-01-11T17:13:39.590Z,53.80
2023-01-11T17:16:11.970Z,54.70
2023-01-11T17:18:42.216Z,55.70
2023-01-11T17:21:36.705Z,56.80
2023-01-11T17:24:07.203Z,57.70
2023-01-11T17:26:44.712Z,57.50
2023-01-11T17:29:38.113Z,57.70
2023-01-11T17:32:13.906Z,58.60
2023-01-11T17:34:43.403Z,58.40
2023-01-11T17:37:16.638Z,58.80
2023-01-11T17:39:54.243Z,58.90
2023-01-11T17:42:42.260Z,59.30
2023-01-11T17:45:22.429Z,59.30
2023-01-11T17:47:53.816Z,60.00
2023-01-11T17:50:31.813Z,59.30
2023-01-11T17:53:21.815Z,59.70
2023-01-11T17:56:00.652Z,59.90
2023-01-11T17:58:29.507Z,59.60
2023-01-11T18:01:09.113Z,57.90
2023-01-11T18:03:45.900Z,57.40
2023-01-11T18:06:21.890Z,57.50
2023-01-11T18:08:55.460Z,57.70
2023-01-11T18:11:39.276Z,57.90
2023-01-11T18:14:19.115Z,57.40
2023-01-11T18:17:21.323Z,57.00
2023-01-11T18:19:49.677Z,57.10
2023-01-11T18:22:35.800Z,57.40
2023-01-11T18:25:20.508Z,58.10
2023-01-11T18:27:49.277Z,58.80
2023-01-11T18:30:32.237Z,59.50
2023-01-11T18:33:12.295Z,60.10
2023-01-11T18:35:44.593Z,61.00
2023-01-11T18:38:16.149Z,61.30
2023-01-11T18:40:46.275Z,61.70
2023-01-11T18:43:15.537Z,61.80
2023-01-11T18:45:43.437Z,62.90
2023-01-11T18:48:16.077Z,62.40
2023-01-11T18:50:46.045Z,62.60
2023-01-11T18:53:15.906Z,62.60
2023-01-11T18:55:45.397Z,62.60
2023-01-11T18:58:13.436Z,62.80
2023-01-11T19:00:42.364Z,62.80
2023-01-11T19:03:12.258Z,63.10
2023-01-11T19:05:40.713Z,62.60
2023-01-11T19:08:09.087Z,62.50
2023-01-11T19:10:37.310Z,62.80
2023-01-11T19:13:05.305Z,62.90
2023-01-11T19:15:36.114Z,62.80
2023-01-11T19:18:05.835Z,62.80
2023-01-11T19:20:34.129Z,62.90
2023-01-11T19:23:02.559Z,63.10
2023-01-11T19:25:30.897Z,64.10
2023-01-11T19:27:58.862Z,64.40
2023-01-11T19:30:27.340Z,65.10
2023-01-11T19:32:55.994Z,66.00
2023-01-11T19:35:24.344Z,66.10
2023-01-11T19:37:53.287Z,66.50
2023-01-11T19:40:22.048Z,65.90
2023-01-11T19:42:52.907Z,66.50
2023-01-11T19:45:21.127Z,67.40
2023-01-11T19:47:49.094Z,68.20
2023-01-11T19:50:18.554Z,68.60
2023-01-11T19:52:47.373Z,69.30
2023-01-11T19:55:15.615Z,69.60
2023-01-11T19:57:43.487Z,70.00
2023-01-11T20:00:14.350Z,70.50
2023-01-11T20:02:43.260Z,71.20
2023-01-11T20:05:11.602Z,71.90
2023-01-11T20:07:39.766Z,72.40
2023-01-11T20:10:07.982Z,73.30
2023-01-11T20:12:36.373Z,74.40
2023-01-11T20:15:04.964Z,75.10
2023-01-11T20:17:34.265Z,76.00
2023-01-11T20:20:02.231Z,76.70
2023-01-11T20:22:30.360Z,77.00
2023-01-11T20:24:59.152Z,77.50
2023-01-11T20:27:28.445Z,78.90
2023-01-11T20:29:56.978Z,79.70
2023-01-11T20:32:40.174Z,81.70
2023-01-11T20:35:10.576Z,82.40
2023-01-11T20:37:39.382Z,82.50
2023-01-11T20:40:08.957Z,82.80
2023-01-11T20:42:36.903Z,83.20
2023-01-11T20:45:05.379Z,83.40
2023-01-11T20:47:33.398Z,84.60
2023-01-11T20:50:01.537Z,85.00
2023-01-11T20:52:32.205Z,85.20
2023-01-11T20:55:00.324Z,84.80
2023-01-11T20:57:30.218Z,85.40
2023-01-11T20:59:58.461Z,86.10
2023-01-11T21:02:26.777Z,85.90
2023-01-11T21:04:54.889Z,85.80
2023-01-11T21:07:22.878Z,86.30
2023-01-11T21:09:51.269Z,86.30
2023-01-11T21:12:19.911Z,88.40
2023-01-11T21:14:48.297Z,89.50
2023-01-11T21:17:17.088Z,89.60
2023-01-11T21:19:45.593Z,88.70
2023-01-11T21:22:13.521Z,88.40
2023-01-11T21:24:41.813Z,88.60
2023-01-11T21:27:10.068Z,87.90
2023-01-11T21:29:38.350Z,88.10
2023-01-11T21:32:06.647Z,88.20
2023-01-11T21:34:34.763Z,88.30
2023-01-11T21:37:03.100Z,88.70
2023-01-11T21:39:31.217Z,88.80
2023-01-11T21:41:59.998Z,89.00
2023-01-11T21:44:34.409Z,89.20
2023-01-11T21:47:07.008Z,88.70
2023-01-11T21:49:35.562Z,89.00
2023-01-11T21:52:03.610Z,88.80
2023-01-11T21:54:32.185Z,88.40
2023-01-11T21:57:00.255Z,88.40
2023-01-11T21:59:30.320Z,88.40
2023-01-11T22:01:58.769Z,88.60
2023-01-11T22:04:26.927Z,89.00
2023-01-11T22:06:55.649Z,89.00
2023-01-11T22:09:27.187Z,89.00
2023-01-11T22:11:55.849Z,89.90
2023-01-11T22:14:24.483Z,90.00
2023-01-11T22:16:53.978Z,90.00
2023-01-11T22:19:22.610Z,90.00
2023-01-11T22:21:50.614Z,90.10
2023-01-11T22:24:18.745Z,90.40
2023-01-11T22:26:46.757Z,90.60
2023-01-11T22:29:18.126Z,90.90
2023-01-11T22:31:50.153Z,91.00
2023-01-11T22:34:19.466Z,91.30
2023-01-11T22:36:48.074Z,91.70
2023-01-11T22:39:19.824Z,92.10
2023-01-11T22:41:49.282Z,92.30
2023-01-11T22:44:17.409Z,92.50
2023-01-11T22:46:45.972Z,92.60
2023-01-11T22:49:15.096Z,92.50
2023-01-11T22:51:44.374Z,92.60
2023-01-11T22:54:13.313Z,92.40
2023-01-11T22:56:42.098Z,93.00
2023-01-11T22:59:10.818Z,93.50
2023-01-11T23:01:41.503Z,93.80
2023-01-11T23:04:13.083Z,94.30
2023-01-11T23:06:43.516Z,94.30
2023-01-11T23:09:16.202Z,94.30
2023-01-11T23:12:04.109Z,94.30
2023-01-11T23:14:33.528Z,94.50
2023-01-11T23:17:08.019Z,94.60
2023-01-11T23:19:38.778Z,94.40
2023-01-11T23:22:08.887Z,94.40
2023-01-11T23:24:38.185Z,94.60
2023-01-11T23:27:06.236Z,94.60
2023-01-11T23:29:40.379Z,94.50
2023-01-11T23:32:08.627Z,94.30
2023-01-11T23:34:36.537Z,94.40
2023-01-11T23:37:05.912Z,94.10
2023-01-11T23:39:34.239Z,94.00
2023-01-11T23:42:21.193Z,94.10
2023-01-11T23:44:49.901Z,94.10
2023-01-11T23:47:25.474Z,93.90
2023-01-11T23:49:56.634Z,93.80
2023-01-11T23:52:27.782Z,93.80
2023-01-11T23:54:56.980Z,93.60
2023-01-11T23:57:26.687Z,93.40
2023-01-11T23:59:56.020Z,93.40
